Time;durP1;ratioP1;P1;durP2;ratioP2;P2;SDS_P1;SDS_P2;PMS_P1;PMS_P2;Temp;Humidity;BMP_temperature;BMP_pressure;BME280_temperature;BME280_humidity;BME280_pressure;Samples;Min_cycle;Max_cycle;Signal;HPM_P1;HPM_P2
2020/12/29 00:00:12;;;;;;;9.80;5.55;;;;;;;-2.89;100.00;101022.44;1778860;80;21590;-58
2020/12/29 00:02:40;;;;;;;10.10;6.20;;;;;;;-2.89;100.00;101006.31;1774033;80;21208;-58
2020/12/29 00:05:08;;;;;;;11.00;5.85;;;;;;;-2.89;100.00;101014.78;1774591;80;21038;-59
2020/12/29 00:07:38;;;;;;;11.30;6.10;;;;;;;-2.90;100.00;101011.87;1778280;80;21033;-49
2020/12/29 00:10:06;;;;;;;9.78;5.83;;;;;;;-2.90;100.00;101013.14;1776974;80;21096;-50
2020/12/29 00:12:34;;;;;;;8.90;5.62;;;;;;;-2.90;100.00;101009.31;1771776;80;21023;-50
2020/12/29 00:15:02;;;;;;;9.23;5.78;;;;;;;-2.89;100.00;101007.58;1775184;80;21265;-49
2020/12/29 00:17:30;;;;;;;10.20;5.62;;;;;;;-2.90;100.00;101005.48;1777910;80;20983;-50
2020/12/29 00:19:58;;;;;;;11.73;5.75;;;;;;;-2.90;100.00;101004.21;1775736;80;21169;-59
2020/12/29 00:22:27;;;;;;;10.68;6.05;;;;;;;-2.89;100.00;100987.17;1776279;80;21047;-50
2020/12/29 00:24:55;;;;;;;10.28;6.03;;;;;;;-2.89;100.00;100981.62;1769745;80;20967;-50
2020/12/29 00:27:23;;;;;;;10.75;6.08;;;;;;;-2.88;100.00;100981.16;1780167;80;21268;-50
2020/12/29 00:29:51;;;;;;;11.90;6.33;;;;;;;-2.88;100.00;100989.63;1769314;80;21029;-59
2020/12/29 00:32:20;;;;;;;11.43;7.00;;;;;;;-2.89;100.00;100977.80;1776127;80;21035;-59
2020/12/29 00:34:50;;;;;;;10.40;6.92;;;;;;;-2.90;100.00;100968.50;1775309;80;21176;-59
2020/12/29 00:37:18;;;;;;;12.60;7.30;;;;;;;-2.92;100.00;100966.47;1777089;80;21177;-59
2020/12/29 00:39:46;;;;;;;11.38;6.50;;;;;;;-2.92;100.00;100963.91;1772293;80;21161;-49
2020/12/29 00:42:14;;;;;;;12.45;7.10;;;;;;;-2.92;100.00;100960.09;1778474;80;21191;-50
2020/12/29 00:44:43;;;;;;;12.18;7.67;;;;;;;-2.92;100.00;100961.36;1771574;80;20915;-49
2020/12/29 00:47:11;;;;;;;12.53;7.28;;;;;;;-2.91;100.00;100962.21;1774870;80;21152;-49
2020/12/29 00:49:39;;;;;;;11.65;7.60;;;;;;;-2.92;100.00;100956.26;1777394;80;21121;-58
2020/12/29 00:52:07;;;;;;;12.50;7.62;;;;;;;-2.91;100.00;100954.56;1776977;80;21212;-59
2020/12/29 00:54:38;;;;;;;13.80;7.83;;;;;;;-2.90;100.00;100961.30;1772494;80;21117;-49
2020/12/29 00:57:06;;;;;;;12.33;6.83;;;;;;;-2.91;100.00;100950.28;1776688;80;20982;-57
2020/12/29 00:59:34;;;;;;;12.88;7.50;;;;;;;-2.89;100.00;100962.94;1776584;80;20939;-58
2020/12/29 01:02:02;;;;;;;11.55;7.08;;;;;;;-2.88;100.00;100962.03;1777778;80;21105;-49
2020/12/29 01:04:37;;;;;;;13.50;7.60;;;;;;;-2.88;100.00;100961.58;1778074;80;21266;-58
2020/12/29 01:07:05;;;;;;;15.40;7.92;;;;;;;-2.87;100.00;100957.32;1774562;80;21116;-57
2020/12/29 01:09:35;;;;;;;12.73;8.55;;;;;;;-2.86;100.00;100952.58;1778102;80;21089;-58
2020/12/29 01:12:03;;;;;;;12.50;7.80;;;;;;;-2.84;100.00;100957.14;1776156;80;21124;-49
2020/12/29 01:14:32;;;;;;;13.10;7.60;;;;;;;-2.84;100.00;100942.68;1777858;80;21141;-49
2020/12/29 01:17:03;;;;;;;17.15;9.43;;;;;;;-2.82;100.00;100949.78;1774075;80;21390;-49
2020/12/29 01:19:31;;;;;;;14.20;8.08;;;;;;;-2.81;100.00;100931.02;1779073;80;21065;-58
2020/12/29 01:21:59;;;;;;;19.55;9.43;;;;;;;-2.79;100.00;100936.05;1774514;80;21185;-51
2020/12/29 01:24:27;;;;;;;15.20;8.63;;;;;;;-2.77;100.00;100937.60;1777357;80;21234;-49
2020/12/29 01:26:57;;;;;;;15.95;8.85;;;;;;;-2.76;100.00;100935.44;1772404;80;21149;-57
2020/12/29 01:29:25;;;;;;;19.52;9.58;;;;;;;-2.76;100.00;100939.27;1776810;80;21438;-48
2020/12/29 01:31:53;;;;;;;16.25;9.15;;;;;;;-2.75;100.00;100936.27;1774974;80;21182;-57
2020/12/29 01:34:21;;;;;;;16.80;8.75;;;;;;;-2.74;100.00;100933.62;1775455;80;21030;-58
2020/12/29 01:36:50;;;;;;;16.82;9.40;;;;;;;-2.72;100.00;100930.55;1774899;80;21108;-48
2020/12/29 01:39:18;;;;;;;17.45;9.20;;;;;;;-2.71;100.00;100935.20;1775665;80;21164;-48
2020/12/29 01:41:47;;;;;;;16.05;9.48;;;;;;;-2.70;100.00;100935.09;1775183;80;21202;-58
2020/12/29 01:44:18;;;;;;;17.55;10.25;;;;;;;-2.70;100.00;100933.83;1778772;80;21101;-57
2020/12/29 01:46:49;;;;;;;20.27;10.93;;;;;;;-2.70;100.00;100933.83;1767965;80;28541;-60
2020/12/29 01:49:18;;;;;;;17.60;11.10;;;;;;;-2.68;100.00;100939.32;1777810;80;21069;-48
2020/12/29 01:51:46;;;;;;;18.20;10.13;;;;;;;-2.68;100.00;100935.04;1772841;80;21392;-48
2020/12/29 01:54:14;;;;;;;14.85;8.75;;;;;;;-2.67;100.00;100934.58;1778895;80;21202;-48
2020/12/29 01:56:42;;;;;;;16.50;10.20;;;;;;;-2.66;100.00;100933.67;1769129;80;21153;-50
2020/12/29 01:59:12;;;;;;;16.25;9.95;;;;;;;-2.65;100.00;100940.41;1779287;80;21149;-49
2020/12/29 02:01:42;;;;;;;16.62;9.10;;;;;;;-2.65;100.00;100934.03;1776469;80;21137;-59
2020/12/29 02:04:12;;;;;;;17.12;9.38;;;;;;;-2.65;100.00;100931.48;1779575;80;21153;-59
2020/12/29 02:06:42;;;;;;;15.28;9.20;;;;;;;-2.66;100.00;100929.84;1775917;80;21204;-59
2020/12/29 02:09:11;;;;;;;17.20;9.35;;;;;;;-2.65;100.00;100932.75;1776262;80;21184;-59
2020/12/29 02:11:40;;;;;;;19.15;10.95;;;;;;;-2.64;100.00;100939.53;1774284;80;21038;-59
2020/12/29 02:14:08;;;;;;;17.75;9.95;;;;;;;-2.63;100.00;100942.45;1776201;80;21029;-59
2020/12/29 02:16:40;;;;;;;18.55;10.68;;;;;;;-2.62;100.00;100934.69;1774625;80;21161;-59
2020/12/29 02:19:09;;;;;;;18.12;9.70;;;;;;;-2.61;100.00;100938.91;1773877;80;21393;-60
2020/12/29 02:21:38;;;;;;;16.65;10.38;;;;;;;-2.58;100.00;100935.35;1775663;80;21061;-50
2020/12/29 02:24:06;;;;;;;18.82;10.65;;;;;;;-2.57;100.00;100934.02;1772743;80;21239;-50
2020/12/29 02:26:35;;;;;;;16.62;9.83;;;;;;;-2.54;100.00;100941.94;1779377;80;21224;-59
2020/12/29 02:29:05;;;;;;;20.23;11.53;;;;;;;-2.51;100.00;100939.23;1770910;80;21117;-59
2020/12/29 02:31:33;;;;;;;17.40;9.90;;;;;;;-2.50;100.00;100934.48;1778885;80;21243;-50
2020/12/29 02:34:02;;;;;;;18.52;10.93;;;;;;;-2.49;100.00;100933.60;1778587;80;20971;-50
2020/12/29 02:36:30;;;;;;;18.10;11.10;;;;;;;-2.48;100.00;100932.69;1779102;80;21167;-53
2020/12/29 02:38:58;;;;;;;16.60;9.65;;;;;;;-2.46;100.00;100925.78;1773387;80;21105;-50
2020/12/29 02:41:26;;;;;;;17.90;10.03;;;;;;;-2.44;100.00;100917.58;1778782;80;21097;-60
2020/12/29 02:43:54;;;;;;;17.60;10.18;;;;;;;-2.41;100.00;100908.48;1776384;80;21155;-58
2020/12/29 02:46:23;;;;;;;17.40;10.25;;;;;;;-2.38;100.00;100907.04;1775555;80;21161;-57
2020/12/29 02:48:52;;;;;;;20.00;10.85;;;;;;;-2.34;100.00;100897.02;1775765;80;20998;-58
2020/12/29 02:51:20;;;;;;;20.90;11.75;;;;;;;-2.30;100.00;100894.67;1775065;80;21164;-49
2020/12/29 02:53:48;;;;;;;20.48;10.95;;;;;;;-2.28;100.00;100896.67;1775678;80;21149;-49
2020/12/29 02:56:19;;;;;;;22.15;12.23;;;;;;;-2.24;100.00;100896.05;1776571;80;21210;-58
2020/12/29 02:58:47;;;;;;;20.50;11.83;;;;;;;-2.22;100.00;100888.68;1776168;80;21168;-49
2020/12/29 03:01:16;;;;;;;22.35;12.85;;;;;;;-2.18;100.00;100891.88;1775789;80;21077;-48
2020/12/29 03:03:44;;;;;;;17.95;10.95;;;;;;;-2.17;100.00;100890.16;1772432;80;20947;-58
2020/12/29 03:06:12;;;;;;;19.05;10.93;;;;;;;-2.15;100.00;100885.80;1778108;80;21160;-58
2020/12/29 03:08:41;;;;;;;20.27;10.40;;;;;;;-2.13;100.00;100882.69;1775379;80;21363;-58
2020/12/29 03:11:09;;;;;;;17.80;10.50;;;;;;;-2.11;100.00;100887.27;1772250;80;21019;-58
2020/12/29 03:13:37;;;;;;;15.65;9.55;;;;;;;-2.11;100.00;100888.08;1777354;80;21190;-59
2020/12/29 03:16:05;;;;;;;19.62;10.93;;;;;;;-2.11;100.00;100875.31;1777388;80;21133;-58
2020/12/29 03:18:35;;;;;;;18.50;11.12;;;;;;;-2.10;100.00;100871.84;1776166;80;21133;-49
2020/12/29 03:21:03;;;;;;;22.27;10.63;;;;;;;-2.08;100.00;100887.09;1776072;80;21216;-49
2020/12/29 03:23:32;;;;;;;20.57;11.78;;;;;;;-2.07;100.00;100886.19;1779409;80;20994;-49
2020/12/29 03:26:00;;;;;;;19.12;10.43;;;;;;;-2.05;100.00;100886.91;1768052;80;21200;-58
2020/12/29 03:28:28;;;;;;;20.55;9.70;;;;;;;-2.04;100.00;100887.30;1779402;80;21212;-58
2020/12/29 03:30:56;;;;;;;21.00;11.08;;;;;;;-2.04;100.00;100893.68;1773563;80;21180;-58
2020/12/29 03:33:24;;;;;;;17.70;9.68;;;;;;;-2.03;100.00;100890.20;1776297;80;21208;-49
2020/12/29 03:35:54;;;;;;;15.60;9.28;;;;;;;-2.04;100.00;100893.22;1775127;80;21014;-49
2020/12/29 03:38:22;;;;;;;16.85;10.32;;;;;;;-2.03;100.00;100883.82;1775482;80;21131;-49
2020/12/29 03:40:51;;;;;;;18.20;11.10;;;;;;;-2.02;100.00;100884.18;1773008;80;21149;-58
2020/12/29 03:43:20;;;;;;;16.57;10.10;;;;;;;-2.02;100.00;100886.73;1776354;80;21164;-49
2020/12/29 03:45:49;;;;;;;17.95;9.83;;;;;;;-2.03;100.00;100880.80;1775699;80;21370;-50
2020/12/29 03:48:20;;;;;;;16.55;10.40;;;;;;;-2.03;100.00;100881.27;1774920;80;21129;-49
2020/12/29 03:50:48;;;;;;;20.45;11.22;;;;;;;-2.03;100.00;100878.71;1776055;80;20998;-50
2020/12/29 03:53:16;;;;;;;20.72;11.33;;;;;;;-2.03;100.00;100876.98;1771073;80;21148;-49
2020/12/29 03:55:45;;;;;;;20.85;10.90;;;;;;;-2.01;100.00;100884.11;1773819;80;21165;-59
2020/12/29 03:58:13;;;;;;;22.73;11.70;;;;;;;-1.99;100.00;100871.23;1775050;80;21375;-49
2020/12/29 04:00:41;;;;;;;19.32;11.10;;;;;;;-1.98;100.00;100870.32;1777093;80;21045;-49
2020/12/29 04:03:09;;;;;;;21.55;11.00;;;;;;;-1.97;100.00;100870.68;1771760;80;21025;-51
2020/12/29 04:05:37;;;;;;;18.23;10.72;;;;;;;-1.96;100.00;100876.18;1776675;80;21081;-50
2020/12/29 04:08:06;;;;;;;19.12;11.55;;;;;;;-1.95;100.00;100882.92;1777991;80;21081;-59
2020/12/29 04:10:34;;;;;;;22.05;11.35;;;;;;;-1.93;100.00;100884.10;1775542;80;21203;-50
2020/12/29 04:13:03;;;;;;;18.67;9.73;;;;;;;-1.93;100.00;100881.13;1772222;80;21173;-58
2020/12/29 04:15:31;;;;;;;19.15;11.57;;;;;;;-1.93;100.00;100877.29;1776521;80;21153;-59
2020/12/29 04:17:59;;;;;;;17.30;10.30;;;;;;;-1.93;100.00;100868.34;1777398;80;21030;-49
2020/12/29 04:20:27;;;;;;;16.62;10.58;;;;;;;-1.95;100.00;100871.43;1779296;80;21144;-59
2020/12/29 04:22:55;;;;;;;19.60;11.12;;;;;;;-1.96;100.00;100864.69;1773081;80;21251;-49
2020/12/29 04:25:23;;;;;;;19.50;11.55;;;;;;;-1.99;100.00;100883.55;1778656;80;21027;-48
2020/12/29 04:27:52;;;;;;;18.90;11.75;;;;;;;-1.98;100.00;100864.75;1771161;80;21124;-51
2020/12/29 04:30:20;;;;;;;16.87;10.15;;;;;;;-1.98;100.00;100868.58;1778114;80;21159;-58
2020/12/29 04:32:48;;;;;;;15.10;8.95;;;;;;;-1.94;100.00;100870.51;1770794;80;21160;-59
2020/12/29 04:35:17;;;;;;;15.98;9.55;;;;;;;-1.93;100.00;100875.16;1778947;80;21312;-60
2020/12/29 04:37:45;;;;;;;14.87;9.50;;;;;;;-1.92;100.00;100871.26;1771258;80;21451;-51
2020/12/29 04:40:13;;;;;;;17.02;10.43;;;;;;;-1.90;100.00;100870.70;1778756;80;20975;-60
2020/12/29 04:42:42;;;;;;;16.35;8.80;;;;;;;-1.87;100.00;100867.16;1777149;80;21158;-51
2020/12/29 04:45:11;;;;;;;14.50;8.60;;;;;;;-1.84;100.00;100877.21;1776236;80;21532;-60
2020/12/29 04:47:39;;;;;;;15.78;9.80;;;;;;;-1.81;100.00;100857.87;1775316;80;21430;-60
2020/12/29 04:50:07;;;;;;;14.58;9.38;;;;;;;-1.80;100.00;100861.61;1775592;80;21057;-58
2020/12/29 04:52:36;;;;;;;14.98;9.20;;;;;;;-1.79;100.00;100866.26;1773708;80;21179;-58
2020/12/29 04:55:05;;;;;;;16.48;10.00;;;;;;;-1.77;100.00;100862.71;1771419;80;21508;-49
2020/12/29 04:57:34;;;;;;;17.42;9.65;;;;;;;-1.75;100.00;100856.22;1774209;80;21188;-53
2020/12/29 05:00:05;;;;;;;16.55;9.38;;;;;;;-1.72;100.00;100854.31;1772937;80;21148;-49
2020/12/29 05:02:34;;;;;;;16.57;8.95;;;;;;;-1.68;100.00;100860.53;1774183;80;21602;-59
2020/12/29 05:05:02;;;;;;;14.87;9.10;;;;;;;-1.65;100.00;100861.63;1777600;80;21077;-50
2020/12/29 05:07:31;;;;;;;15.50;9.30;;;;;;;-1.63;100.00;100864.47;1775006;80;21137;-49
2020/12/29 05:10:06;;;;;;;17.65;9.60;;;;;;;-1.60;100.00;100864.73;1775492;80;20930;-59
2020/12/29 05:12:47;;;;;;;15.15;9.65;;;;;;;-1.58;100.00;100873.14;1776154;80;21376;-60
2020/12/29 05:15:17;;;;;;;18.00;11.03;;;;;;;-1.55;100.00;100879.36;1772770;80;21084;-58
2020/12/29 05:17:45;;;;;;;15.95;9.58;;;;;;;-1.52;100.00;100876.60;1774101;80;21093;-49
2020/12/29 05:20:13;;;;;;;17.35;9.08;;;;;;;-1.51;100.00;100882.92;1777119;80;20954;-59
2020/12/29 05:22:41;;;;;;;14.35;8.75;;;;;;;-1.48;100.00;100888.30;1776298;80;21145;-58
2020/12/29 05:25:14;;;;;;;17.60;9.93;;;;;;;-1.44;100.00;100900.44;1773084;80;21613;-50
2020/12/29 05:27:43;;;;;;;19.50;12.18;;;;;;;-1.42;100.00;100900.73;1779327;80;21152;-59
2020/12/29 05:30:11;;;;;;;23.00;14.38;;;;;;;-1.40;100.00;100912.13;1701327;80;21259;-59
2020/12/29 05:32:39;;;;;;;20.70;13.20;;;;;;;-1.38;100.00;100916.25;1778146;80;21177;-59
2020/12/29 05:35:13;;;;;;;22.40;13.95;;;;;;;-1.36;100.00;100917.00;1772248;80;21046;-59
2020/12/29 05:37:42;;;;;;;16.95;12.25;;;;;;;-1.34;100.00;100907.48;1779631;80;21370;-49
2020/12/29 05:40:29;;;;;;;17.32;10.70;;;;;;;-1.31;100.00;100902.66;1773090;80;21141;-48
2020/12/29 05:42:59;;;;;;;16.67;9.95;;;;;;;-1.29;100.00;100895.70;1773623;80;21117;-49
2020/12/29 05:45:28;;;;;;;14.35;9.10;;;;;;;-1.29;100.00;100904.23;1772424;80;21136;-49
2020/12/29 05:47:57;;;;;;;15.85;9.58;;;;;;;-1.25;100.00;100919.75;1740860;82;21615;-58
2020/12/29 05:50:26;;;;;;;14.85;8.65;;;;;;;-1.22;100.00;100911.87;1735676;82;21345;-58
2020/12/29 05:53:03;;;;;;;16.25;9.48;;;;;;;-1.20;100.00;100902.03;1778526;80;21183;-48
2020/12/29 05:55:34;;;;;;;13.70;8.58;;;;;;;-1.17;100.00;100908.25;1775781;80;21117;-49
2020/12/29 05:58:07;;;;;;;15.45;10.80;;;;;;;-1.13;100.00;100912.27;1776713;80;21121;-60
2020/12/29 06:00:39;;;;;;;16.37;10.20;;;;;;;-1.09;100.00;100904.77;1770700;80;21156;-48
2020/12/29 06:03:08;;;;;;;14.23;9.08;;;;;;;-1.02;100.00;100895.81;1772652;80;21384;-49
2020/12/29 06:05:37;;;;;;;12.65;8.70;;;;;;;-0.92;100.00;100894.78;1771535;80;21140;-58
2020/12/29 06:08:07;;;;;;;13.22;9.03;;;;;;;-0.84;100.00;100890.83;1733270;82;21185;-49
2020/12/29 06:10:36;;;;;;;14.98;9.05;;;;;;;-0.76;100.00;100886.08;1768066;80;21157;-58
2020/12/29 06:13:05;;;;;;;13.53;7.72;;;;;;;-0.65;100.00;100883.30;1738158;82;21113;-49
2020/12/29 06:15:36;;;;;;;14.20;8.40;;;;;;;-0.57;100.00;100890.88;1771373;80;21387;-58
2020/12/29 06:18:05;;;;;;;11.15;6.90;;;;;;;-0.50;100.00;100886.18;1765714;80;21081;-58
2020/12/29 06:20:48;;;;;;;15.08;7.65;;;;;;;-0.45;100.00;100890.58;1764143;80;20953;-48
2020/12/29 06:23:18;;;;;;;11.30;7.10;;;;;;;-0.39;100.00;100904.25;1769913;80;21212;-58
2020/12/29 06:25:47;;;;;;;12.33;7.75;;;;;;;-0.34;100.00;100907.80;1771260;80;21153;-48
2020/12/29 06:28:18;;;;;;;12.23;7.95;;;;;;;-0.32;100.00;100909.36;1775950;80;21196;-58
2020/12/29 06:30:46;;;;;;;;;;;;;;;-0.30;100.00;100911.37;1775730;80;21133;-57
2020/12/29 06:33:17;;;;;;;11.48;7.62;;;;;;;-0.28;100.00;100892.88;1776149;80;20175;-58
2020/12/29 06:35:45;;;;;;;11.40;8.28;;;;;;;-0.27;100.00;100896.25;1724129;82;21133;-59
2020/12/29 06:38:16;;;;;;;9.28;6.30;;;;;;;-0.27;100.00;100891.95;1766919;80;21125;-58
2020/12/29 06:40:45;;;;;;;11.48;8.55;;;;;;;-0.26;100.00;100919.23;1777613;80;21269;-59
2020/12/29 06:43:15;;;;;;;10.23;6.72;;;;;;;-0.23;100.00;100894.31;1694584;82;21521;-58
2020/12/29 06:45:43;;;;;;;10.72;6.35;;;;;;;-0.23;100.00;100907.95;1717726;80;21148;-59
2020/12/29 06:48:19;;;;;;;10.80;6.97;;;;;;;-0.21;100.00;100902.74;1767885;80;21066;-49
2020/12/29 06:50:47;;;;;;;9.98;7.17;;;;;;;-0.20;100.00;100903.91;1730028;82;21078;-49
2020/12/29 06:53:17;;;;;;;9.58;6.85;;;;;;;-0.19;100.00;100900.45;1713737;83;21177;-57
2020/12/29 06:55:49;;;;;;;10.50;7.67;;;;;;;-0.17;100.00;100892.66;1776570;80;21183;-49
2020/12/29 06:58:33;;;;;;;11.05;7.33;;;;;;;-0.17;100.00;100897.32;1768584;80;21077;-59
2020/12/29 07:01:27;;;;;;;12.45;8.55;;;;;;;-0.15;100.00;100893.36;1763931;80;21097;-50
2020/12/29 07:04:06;;;;;;;12.78;8.10;;;;;;;-0.16;100.00;100894.30;1777882;80;21093;-50
2020/12/29 07:06:36;;;;;;;12.50;8.48;;;;;;;-0.15;100.00;100894.21;1763707;79;21373;-58
2020/12/29 07:09:22;;;;;;;13.95;8.93;;;;;;;-0.14;100.00;100897.13;1767499;80;21046;-58
2020/12/29 07:12:08;;;;;;;16.15;10.60;;;;;;;-0.13;100.00;100894.92;1776340;80;20943;-58
2020/12/29 07:14:37;;;;;;;11.57;8.18;;;;;;;-0.12;100.00;100895.27;1738383;80;21060;-58
2020/12/29 07:17:06;;;;;;;14.05;8.20;;;;;;;-0.10;100.00;100899.03;1772939;80;21010;-58
2020/12/29 07:19:38;;;;;;;12.23;8.10;;;;;;;-0.09;100.00;100904.52;1774686;80;22298;-58
2020/12/29 07:22:15;;;;;;;10.55;6.97;;;;;;;-0.10;100.00;100902.41;1771476;80;21109;-58
2020/12/29 07:24:45;;;;;;;12.03;7.70;;;;;;;-0.08;100.00;100909.53;1776866;80;21093;-59
2020/12/29 07:27:19;;;;;;;14.33;9.28;;;;;;;-0.05;100.00;100916.20;1772276;80;21101;-59
2020/12/29 07:29:56;;;;;;;13.10;8.30;;;;;;;-0.03;100.00;100907.97;1777235;80;21078;-58
2020/12/29 07:32:25;;;;;;;12.40;8.20;;;;;;;0.02;100.00;100907.20;1774984;80;21355;-59
2020/12/29 07:34:53;;;;;;;11.65;7.92;;;;;;;0.05;100.00;100906.20;1773028;80;21196;-58
2020/12/29 07:37:22;;;;;;;14.45;9.08;;;;;;;0.06;100.00;100902.24;1774295;80;20994;-59
2020/12/29 07:39:51;;;;;;;12.47;7.58;;;;;;;0.05;100.00;100905.73;1775481;80;21034;-58
2020/12/29 07:42:19;;;;;;;11.30;7.87;;;;;;;0.03;100.00;100911.41;1775050;80;21180;-57
2020/12/29 07:44:49;;;;;;;13.95;9.28;;;;;;;0.05;100.00;100917.73;1773824;80;22241;-59
2020/12/29 07:47:17;;;;;;;13.03;8.45;;;;;;;0.06;100.00;100918.09;1780003;80;21194;-58
2020/12/29 07:49:45;;;;;;;11.53;8.30;;;;;;;0.07;100.00;100915.41;1767236;80;21109;-60
2020/12/29 07:52:23;;;;;;;10.98;8.13;;;;;;;0.09;100.00;100910.20;1773764;80;21129;-59
2020/12/29 07:55:10;;;;;;;12.25;8.15;;;;;;;0.07;100.00;100900.03;1774984;80;21027;-59
2020/12/29 07:57:39;;;;;;;11.60;7.03;;;;;;;0.09;100.00;100912.77;1774713;80;21197;-59
2020/12/29 08:00:14;;;;;;;13.32;8.45;;;;;;;0.08;100.00;100892.73;1773158;80;21137;-58
2020/12/29 08:02:52;;;;;;;12.95;8.65;;;;;;;0.10;100.00;100892.61;1780919;80;21528;-60
2020/12/29 08:05:26;;;;;;;12.00;8.40;;;;;;;0.11;100.00;100895.53;1767173;80;21139;-60
2020/12/29 08:07:58;;;;;;;12.47;8.93;;;;;;;0.13;100.00;100894.98;1772195;80;21093;-60
2020/12/29 08:10:31;;;;;;;15.35;10.03;;;;;;;0.16;100.00;100892.23;1773734;80;21380;-60
2020/12/29 08:13:01;;;;;;;14.80;9.93;;;;;;;0.16;100.00;100894.78;1774917;80;21216;-59
2020/12/29 08:15:39;;;;;;;14.60;9.33;;;;;;;0.18;100.00;100887.80;1773132;80;21069;-60
2020/12/29 08:18:16;;;;;;;14.23;9.85;;;;;;;0.22;100.00;100881.55;1774908;80;21153;-60
2020/12/29 08:20:56;;;;;;;17.37;10.15;;;;;;;0.22;100.00;100878.52;1770637;80;21236;-59
2020/12/29 08:23:25;;;;;;;14.55;9.63;;;;;;;0.26;100.00;100871.45;1777165;80;21365;-61
2020/12/29 08:25:58;;;;;;;13.43;10.20;;;;;;;0.30;100.00;100873.35;1773585;80;21038;-60
2020/12/29 08:28:33;;;;;;;17.42;11.40;;;;;;;0.32;100.00;100876.65;1777431;80;21224;-59
2020/12/29 08:31:01;;;;;;;14.87;9.63;;;;;;;0.34;100.00;100874.35;1770655;80;21030;-60
2020/12/29 08:33:30;;;;;;;13.03;9.23;;;;;;;0.33;100.00;100871.88;1778822;80;21261;-60
2020/12/29 08:36:02;;;;;;;14.10;9.33;;;;;;;0.33;100.00;100874.44;1775975;80;21198;-60
2020/12/29 08:39:02;;;;;;;16.65;9.75;;;;;;;0.33;100.00;100881.66;1774765;80;21168;-60
2020/12/29 08:41:45;;;;;;;17.87;11.12;;;;;;;0.38;100.00;100889.05;1773757;80;21057;-59
2020/12/29 08:44:13;;;;;;;18.20;10.75;;;;;;;0.41;100.00;100885.81;1772976;80;21186;-59
2020/12/29 08:46:41;;;;;;;13.85;9.33;;;;;;;0.43;100.00;100887.02;1773254;80;21145;-60
2020/12/29 08:49:09;;;;;;;14.93;9.78;;;;;;;0.44;100.00;100883.52;1773594;80;21275;-60
2020/12/29 08:51:43;;;;;;;15.38;10.18;;;;;;;0.44;100.00;100884.34;1773652;80;21145;-59
2020/12/29 08:54:18;;;;;;;17.90;10.30;;;;;;;0.40;100.00;100876.95;1773625;80;21626;-60
2020/12/29 08:56:47;;;;;;;17.45;10.35;;;;;;;0.39;100.00;100877.89;1769475;80;21156;-60
2020/12/29 08:59:17;;;;;;;14.68;10.85;;;;;;;0.40;100.00;100880.80;1780493;80;21076;-60
2020/12/29 09:01:56;;;;;;;16.50;12.20;;;;;;;0.40;100.00;100879.52;1773174;80;22577;-60
2020/12/29 09:04:34;;;;;;;16.60;11.55;;;;;;;0.41;100.00;100871.71;1748033;80;21523;-58
2020/12/29 09:07:13;;;;;;;16.40;12.15;;;;;;;0.43;100.00;100874.19;1774383;80;20994;-59
2020/12/29 09:09:57;;;;;;;16.15;12.82;;;;;;;0.44;100.00;100873.26;1776297;80;21101;-59
2020/12/29 09:12:32;;;;;;;16.93;11.65;;;;;;;0.45;100.00;100852.62;1773138;80;21090;-59
2020/12/29 09:15:07;;;;;;;16.35;10.58;;;;;;;0.50;100.00;100856.19;1778678;80;21527;-60
2020/12/29 09:17:40;;;;;;;17.57;11.22;;;;;;;0.53;100.00;100858.55;1770811;80;21073;-60
2020/12/29 09:20:22;;;;;;;17.23;11.38;;;;;;;0.53;100.00;100857.27;1772474;80;21017;-58
2020/12/29 09:23:11;;;;;;;20.65;13.75;;;;;;;0.53;100.00;100862.41;1771253;80;21200;-59
2020/12/29 09:25:43;;;;;;;18.65;11.05;;;;;;;0.53;100.00;100866.69;1770072;80;21137;-59
2020/12/29 09:28:21;;;;;;;19.02;11.65;;;;;;;0.51;100.00;100851.41;1773599;80;21388;-61
2020/12/29 09:31:04;;;;;;;16.80;11.08;;;;;;;0.51;100.00;100851.88;1774506;80;21169;-60
2020/12/29 09:33:34;;;;;;;22.73;14.05;;;;;;;0.52;100.00;100854.33;1776718;80;21247;-59
2020/12/29 09:36:03;;;;;;;20.45;13.48;;;;;;;0.56;100.00;100861.36;1776341;80;21017;-59
2020/12/29 09:38:32;;;;;;;15.68;11.33;;;;;;;0.61;100.00;100857.56;1773246;80;21106;-59
2020/12/29 09:41:01;;;;;;;16.90;11.57;;;;;;;0.65;100.00;100831.24;1776366;80;21151;-59
2020/12/29 09:43:30;;;;;;;21.97;13.08;;;;;;;0.68;100.00;100839.98;1773305;80;21208;-60
2020/12/29 09:45:59;;;;;;;20.10;13.15;;;;;;;0.66;100.00;100819.58;1777633;80;21197;-59
2020/12/29 09:48:27;;;;;;;21.10;13.38;;;;;;;0.66;100.00;100823.43;1766515;80;21228;-61
2020/12/29 09:50:56;;;;;;;20.20;12.65;;;;;;;0.68;100.00;100836.14;1774088;80;21548;-59
2020/12/29 09:53:24;;;;;;;15.98;11.25;;;;;;;0.69;100.00;100828.83;1772056;80;21395;-59
2020/12/29 09:55:52;;;;;;;18.30;12.35;;;;;;;0.71;100.00;100832.91;1778559;80;21184;-60
2020/12/29 09:58:20;;;;;;;18.60;12.88;;;;;;;0.71;100.00;100835.47;1773493;80;21141;-60
2020/12/29 10:00:50;;;;;;;15.90;11.05;;;;;;;0.70;100.00;100840.25;1772755;80;21677;-61
2020/12/29 10:03:19;;;;;;;14.63;10.35;;;;;;;0.71;100.00;100860.31;1771150;80;21136;-60
2020/12/29 10:05:49;;;;;;;15.88;10.23;;;;;;;0.72;100.00;100849.96;1770861;80;21382;-60
2020/12/29 10:08:17;;;;;;;16.87;11.12;;;;;;;0.72;100.00;100848.68;1772659;80;21178;-59
2020/12/29 10:10:45;;;;;;;16.82;10.90;;;;;;;0.73;100.00;100834.10;1777342;80;21133;-60
2020/12/29 10:13:13;;;;;;;17.45;11.93;;;;;;;0.75;100.00;100824.53;1777264;80;21161;-60
2020/12/29 10:15:41;;;;;;;20.48;13.65;;;;;;;0.72;100.00;100814.04;1779558;80;21124;-60
2020/12/29 10:18:09;;;;;;;18.52;12.03;;;;;;;0.69;100.00;100807.83;1775085;80;21160;-60
2020/12/29 10:20:37;;;;;;;21.48;12.63;;;;;;;0.67;100.00;100812.23;1774372;80;20982;-50
2020/12/29 10:23:06;;;;;;;18.92;12.55;;;;;;;0.67;100.00;100819.93;1778176;80;21120;-51
2020/12/29 10:25:34;;;;;;;17.42;11.57;;;;;;;0.66;100.00;100827.28;1776661;80;21096;-50
2020/12/29 10:28:02;;;;;;;16.32;10.63;;;;;;;0.63;100.00;100823.63;1774688;80;21542;-51
2020/12/29 10:30:31;;;;;;;21.70;14.10;;;;;;;0.62;100.00;100825.03;1776281;80;22201;-52
2020/12/29 10:32:59;;;;;;;17.52;12.45;;;;;;;0.63;100.00;100819.78;1777439;80;21244;-50
2020/12/29 10:35:27;;;;;;;17.40;12.10;;;;;;;0.62;100.00;100813.02;1776296;80;21497;-59
2020/12/29 10:37:55;;;;;;;15.83;10.88;;;;;;;0.64;100.00;100819.31;1778208;80;20956;-51
2020/12/29 10:40:24;;;;;;;20.85;13.30;;;;;;;0.68;100.00;100822.03;1775421;80;21088;-51
2020/12/29 10:42:52;;;;;;;18.73;12.23;;;;;;;0.74;100.00;100819.05;1773757;79;21239;-51
2020/12/29 10:45:20;;;;;;;16.12;11.22;;;;;;;0.77;100.00;100815.47;1775555;80;21132;-49
2020/12/29 10:47:48;;;;;;;16.67;11.97;;;;;;;0.72;100.00;100811.94;1773153;80;21156;-51
2020/12/29 10:50:16;;;;;;;17.57;12.93;;;;;;;0.67;100.00;100822.49;1770390;80;21140;-50
2020/12/29 10:52:44;;;;;;;19.05;12.85;;;;;;;0.62;100.00;100809.17;1772915;80;21149;-50
2020/12/29 10:55:12;;;;;;;19.32;12.37;;;;;;;0.62;100.00;100806.61;1769984;80;21355;-49
2020/12/29 10:57:40;;;;;;;16.73;11.93;;;;;;;0.66;100.00;100818.77;1774212;80;21333;-51
2020/12/29 11:00:08;;;;;;;19.37;12.85;;;;;;;0.66;100.00;100815.73;1773219;80;21018;-50
2020/12/29 11:02:36;;;;;;;21.12;11.75;;;;;;;0.65;100.00;100812.81;1777869;80;21140;-51
2020/12/29 11:05:05;;;;;;;22.02;14.07;;;;;;;0.68;100.00;100815.18;1772001;80;21094;-50
2020/12/29 11:07:34;;;;;;;25.97;18.15;;;;;;;0.72;100.00;100806.34;1778604;80;21201;-51
2020/12/29 11:10:03;;;;;;;19.60;12.85;;;;;;;0.75;100.00;100808.33;1776045;80;21516;-50
2020/12/29 11:12:32;;;;;;;18.57;11.78;;;;;;;0.75;100.00;100810.89;1778655;80;21365;-50
2020/12/29 11:15:00;;;;;;;26.75;13.72;;;;;;;0.73;100.00;100805.88;1771833;80;21140;-50
2020/12/29 11:17:28;;;;;;;18.07;12.18;;;;;;;0.72;100.00;100811.94;1775238;80;21169;-50
2020/12/29 11:19:58;;;;;;;20.23;12.78;;;;;;;0.71;100.00;100809.81;1774869;80;21370;-51
2020/12/29 11:22:27;;;;;;;22.15;15.32;;;;;;;0.70;100.00;100810.75;1745195;80;21049;-50